sensor_id;sensor_type;location;lat;lon;timestamp;temperature;humidity
65584;DHT22;70321;43.592;1.456;2023-08-08T00:00:27;20.67;58.53
65584;DHT22;70321;43.592;1.456;2023-08-08T00:02:54;20.58;58.64
65584;DHT22;70321;43.592;1.456;2023-08-08T00:05:24;20.55;58.37
65584;DHT22;70321;43.592;1.456;2023-08-08T00:07:51;20.51;58.74
65584;DHT22;70321;43.592;1.456;2023-08-08T00:10:17;20.47;58.94
65584;DHT22;70321;43.592;1.456;2023-08-08T00:12:44;20.43;58.77
65584;DHT22;70321;43.592;1.456;2023-08-08T00:15:11;20.37;59.10
65584;DHT22;70321;43.592;1.456;2023-08-08T00:17:37;20.36;58.97
65584;DHT22;70321;43.592;1.456;2023-08-08T00:20:05;20.31;58.86
65584;DHT22;70321;43.592;1.456;2023-08-08T00:22:31;20.26;58.69
65584;DHT22;70321;43.592;1.456;2023-08-08T00:24:58;20.21;58.59
65584;DHT22;70321;43.592;1.456;2023-08-08T00:27:25;20.16;58.22
65584;DHT22;70321;43.592;1.456;2023-08-08T00:29:51;20.09;57.51
65584;DHT22;70321;43.592;1.456;2023-08-08T00:32:19;20.05;58.18
65584;DHT22;70321;43.592;1.456;2023-08-08T00:34:46;20.00;58.47
65584;DHT22;70321;43.592;1.456;2023-08-08T00:37:13;19.97;58.54
65584;DHT22;70321;43.592;1.456;2023-08-08T00:39:40;19.94;58.92
65584;DHT22;70321;43.592;1.456;2023-08-08T00:42:08;19.90;58.79
65584;DHT22;70321;43.592;1.456;2023-08-08T00:44:35;19.89;59.26
65584;DHT22;70321;43.592;1.456;2023-08-08T00:47:04;19.85;58.86
65584;DHT22;70321;43.592;1.456;2023-08-08T00:49:30;19.85;59.18
65584;DHT22;70321;43.592;1.456;2023-08-08T00:51:57;19.82;59.26
65584;DHT22;70321;43.592;1.456;2023-08-08T00:54:24;19.79;59.26
65584;DHT22;70321;43.592;1.456;2023-08-08T00:56:51;19.77;59.64
65584;DHT22;70321;43.592;1.456;2023-08-08T00:59:19;19.70;59.32
65584;DHT22;70321;43.592;1.456;2023-08-08T01:01:45;19.70;60.19
65584;DHT22;70321;43.592;1.456;2023-08-08T01:04:12;19.67;60.24
65584;DHT22;70321;43.592;1.456;2023-08-08T01:06:47;19.63;60.10
65584;DHT22;70321;43.592;1.456;2023-08-08T01:09:30;19.59;60.18
65584;DHT22;70321;43.592;1.456;2023-08-08T01:12:00;19.56;60.10
65584;DHT22;70321;43.592;1.456;2023-08-08T01:14:29;19.49;60.27
65584;DHT22;70321;43.592;1.456;2023-08-08T01:16:56;19.45;60.67
65584;DHT22;70321;43.592;1.456;2023-08-08T01:19:28;19.44;60.83
65584;DHT22;70321;43.592;1.456;2023-08-08T01:21:58;19.36;61.08
65584;DHT22;70321;43.592;1.456;2023-08-08T01:24:26;19.32;61.03
65584;DHT22;70321;43.592;1.456;2023-08-08T01:26:56;19.24;61.23
65584;DHT22;70321;43.592;1.456;2023-08-08T01:29:22;19.21;61.69
65584;DHT22;70321;43.592;1.456;2023-08-08T01:31:49;19.15;61.79
65584;DHT22;70321;43.592;1.456;2023-08-08T01:34:16;19.12;62.20
65584;DHT22;70321;43.592;1.456;2023-08-08T01:36:56;19.05;62.43
65584;DHT22;70321;43.592;1.456;2023-08-08T01:39:30;19.02;62.40
65584;DHT22;70321;43.592;1.456;2023-08-08T01:41:59;18.95;62.63
65584;DHT22;70321;43.592;1.456;2023-08-08T01:44:28;18.92;62.44
65584;DHT22;70321;43.592;1.456;2023-08-08T01:46:55;18.91;62.93
65584;DHT22;70321;43.592;1.456;2023-08-08T01:49:22;18.88;62.89
65584;DHT22;70321;43.592;1.456;2023-08-08T01:51:48;18.87;62.43
65584;DHT22;70321;43.592;1.456;2023-08-08T01:54:17;18.83;63.10
65584;DHT22;70321;43.592;1.456;2023-08-08T01:56:43;18.78;62.26
65584;DHT22;70321;43.592;1.456;2023-08-08T01:59:10;18.77;62.37
65584;DHT22;70321;43.592;1.456;2023-08-08T02:01:39;18.77;62.96
65584;DHT22;70321;43.592;1.456;2023-08-08T02:04:06;18.70;63.28
65584;DHT22;70321;43.592;1.456;2023-08-08T02:06:32;18.65;63.56
65584;DHT22;70321;43.592;1.456;2023-08-08T02:08:59;18.64;63.60
65584;DHT22;70321;43.592;1.456;2023-08-08T02:11:26;18.57;63.98
65584;DHT22;70321;43.592;1.456;2023-08-08T02:13:52;18.56;64.21
65584;DHT22;70321;43.592;1.456;2023-08-08T02:16:19;18.54;64.58
65584;DHT22;70321;43.592;1.456;2023-08-08T02:18:46;18.54;64.70
65584;DHT22;70321;43.592;1.456;2023-08-08T02:21:12;18.56;64.91
65584;DHT22;70321;43.592;1.456;2023-08-08T02:23:39;18.53;64.66
65584;DHT22;70321;43.592;1.456;2023-08-08T02:26:06;18.53;64.90
65584;DHT22;70321;43.592;1.456;2023-08-08T02:28:32;18.56;65.38
65584;DHT22;70321;43.592;1.456;2023-08-08T02:30:59;18.54;65.76
65584;DHT22;70321;43.592;1.456;2023-08-08T02:33:26;18.56;65.58
65584;DHT22;70321;43.592;1.456;2023-08-08T02:35:52;18.56;65.28
65584;DHT22;70321;43.592;1.456;2023-08-08T02:38:19;18.53;65.47
65584;DHT22;70321;43.592;1.456;2023-08-08T02:40:45;18.50;65.47
65584;DHT22;70321;43.592;1.456;2023-08-08T02:43:12;18.49;65.49
65584;DHT22;70321;43.592;1.456;2023-08-08T02:45:39;18.41;65.40
65584;DHT22;70321;43.592;1.456;2023-08-08T02:48:06;18.41;65.66
65584;DHT22;70321;43.592;1.456;2023-08-08T02:50:33;18.39;65.15
65584;DHT22;70321;43.592;1.456;2023-08-08T02:52:59;18.33;65.74
65584;DHT22;70321;43.592;1.456;2023-08-08T02:55:26;18.30;65.97
65584;DHT22;70321;43.592;1.456;2023-08-08T02:57:53;18.26;66.40
65584;DHT22;70321;43.592;1.456;2023-08-08T03:00:19;18.25;66.60
65584;DHT22;70321;43.592;1.456;2023-08-08T03:02:46;18.20;66.49
65584;DHT22;70321;43.592;1.456;2023-08-08T03:05:13;18.14;66.45
65584;DHT22;70321;43.592;1.456;2023-08-08T03:07:40;18.16;66.13
65584;DHT22;70321;43.592;1.456;2023-08-08T03:10:06;18.13;66.04
65584;DHT22;70321;43.592;1.456;2023-08-08T03:12:33;18.09;66.07
65584;DHT22;70321;43.592;1.456;2023-08-08T03:15:00;18.05;66.20
65584;DHT22;70321;43.592;1.456;2023-08-08T03:17:26;18.00;66.27
65584;DHT22;70321;43.592;1.456;2023-08-08T03:19:53;17.97;66.61
65584;DHT22;70321;43.592;1.456;2023-08-08T03:22:20;17.93;66.77
65584;DHT22;70321;43.592;1.456;2023-08-08T03:24:47;17.93;66.73
65584;DHT22;70321;43.592;1.456;2023-08-08T03:27:13;17.87;66.32
65584;DHT22;70321;43.592;1.456;2023-08-08T03:29:40;17.83;66.94
65584;DHT22;70321;43.592;1.456;2023-08-08T03:32:07;17.79;67.13
65584;DHT22;70321;43.592;1.456;2023-08-08T03:34:33;17.78;67.82
65584;DHT22;70321;43.592;1.456;2023-08-08T03:37:00;17.73;67.44
65584;DHT22;70321;43.592;1.456;2023-08-08T03:39:27;17.69;67.25
65584;DHT22;70321;43.592;1.456;2023-08-08T03:41:54;17.71;67.43
65584;DHT22;70321;43.592;1.456;2023-08-08T03:44:21;17.65;67.50
65584;DHT22;70321;43.592;1.456;2023-08-08T03:46:47;17.65;67.41
65584;DHT22;70321;43.592;1.456;2023-08-08T03:49:14;17.63;67.58
65584;DHT22;70321;43.592;1.456;2023-08-08T03:51:41;17.63;67.49
65584;DHT22;70321;43.592;1.456;2023-08-08T03:54:07;17.62;67.66
65584;DHT22;70321;43.592;1.456;2023-08-08T03:56:34;17.58;67.76
65584;DHT22;70321;43.592;1.456;2023-08-08T03:59:01;17.59;67.32
65584;DHT22;70321;43.592;1.456;2023-08-08T04:01:28;17.55;67.48
65584;DHT22;70321;43.592;1.456;2023-08-08T04:03:54;17.51;67.35
65584;DHT22;70321;43.592;1.456;2023-08-08T04:06:21;17.49;68.00
65584;DHT22;70321;43.592;1.456;2023-08-08T04:08:48;17.46;68.23
65584;DHT22;70321;43.592;1.456;2023-08-08T04:11:14;17.48;68.23
65584;DHT22;70321;43.592;1.456;2023-08-08T04:13:41;17.48;68.02
65584;DHT22;70321;43.592;1.456;2023-08-08T04:16:08;17.52;67.61
65584;DHT22;70321;43.592;1.456;2023-08-08T04:18:34;17.42;68.17
65584;DHT22;70321;43.592;1.456;2023-08-08T04:21:01;17.36;68.66
65584;DHT22;70321;43.592;1.456;2023-08-08T04:23:28;17.38;67.96
65584;DHT22;70321;43.592;1.456;2023-08-08T04:25:54;17.35;68.53
65584;DHT22;70321;43.592;1.456;2023-08-08T04:28:21;17.36;68.91
65584;DHT22;70321;43.592;1.456;2023-08-08T04:30:48;17.34;69.00
65584;DHT22;70321;43.592;1.456;2023-08-08T04:33:14;17.31;68.92
65584;DHT22;70321;43.592;1.456;2023-08-08T04:35:41;17.32;69.56
65584;DHT22;70321;43.592;1.456;2023-08-08T04:38:09;17.30;69.56
65584;DHT22;70321;43.592;1.456;2023-08-08T04:40:35;17.32;69.40
65584;DHT22;70321;43.592;1.456;2023-08-08T04:43:04;17.25;69.21
65584;DHT22;70321;43.592;1.456;2023-08-08T04:45:31;17.20;69.45
65584;DHT22;70321;43.592;1.456;2023-08-08T04:47:57;17.18;69.39
65584;DHT22;70321;43.592;1.456;2023-08-08T04:50:24;17.15;69.41
65584;DHT22;70321;43.592;1.456;2023-08-08T04:52:51;17.11;69.18
65584;DHT22;70321;43.592;1.456;2023-08-08T04:55:18;17.04;69.40
65584;DHT22;70321;43.592;1.456;2023-08-08T04:57:45;16.98;69.60
65584;DHT22;70321;43.592;1.456;2023-08-08T05:00:13;16.94;69.70
65584;DHT22;70321;43.592;1.456;2023-08-08T05:02:40;16.85;69.51
65584;DHT22;70321;43.592;1.456;2023-08-08T05:05:08;16.83;70.06
65584;DHT22;70321;43.592;1.456;2023-08-08T05:07:35;16.84;70.35
65584;DHT22;70321;43.592;1.456;2023-08-08T05:10:04;16.84;70.33
65584;DHT22;70321;43.592;1.456;2023-08-08T05:12:32;16.83;69.78
65584;DHT22;70321;43.592;1.456;2023-08-08T05:14:59;16.80;70.24
65584;DHT22;70321;43.592;1.456;2023-08-08T05:17:25;16.76;70.46
65584;DHT22;70321;43.592;1.456;2023-08-08T05:19:52;16.76;70.66
65584;DHT22;70321;43.592;1.456;2023-08-08T05:22:19;16.77;70.32
65584;DHT22;70321;43.592;1.456;2023-08-08T05:24:46;16.74;70.53
65584;DHT22;70321;43.592;1.456;2023-08-08T05:27:13;16.76;70.83
65584;DHT22;70321;43.592;1.456;2023-08-08T05:29:39;16.76;70.82
65584;DHT22;70321;43.592;1.456;2023-08-08T05:32:07;16.77;70.61
65584;DHT22;70321;43.592;1.456;2023-08-08T05:34:34;16.77;70.93
65584;DHT22;70321;43.592;1.456;2023-08-08T05:37:01;16.83;70.97
65584;DHT22;70321;43.592;1.456;2023-08-08T05:39:43;16.80;70.33
65584;DHT22;70321;43.592;1.456;2023-08-08T05:42:09;16.80;70.54
65584;DHT22;70321;43.592;1.456;2023-08-08T05:44:36;16.73;70.12
65584;DHT22;70321;43.592;1.456;2023-08-08T05:47:03;16.71;70.09
65584;DHT22;70321;43.592;1.456;2023-08-08T05:49:30;16.64;70.70
65584;DHT22;70321;43.592;1.456;2023-08-08T05:51:56;16.59;70.52
65584;DHT22;70321;43.592;1.456;2023-08-08T05:54:23;16.49;71.01
65584;DHT22;70321;43.592;1.456;2023-08-08T05:56:50;16.46;71.20
65584;DHT22;70321;43.592;1.456;2023-08-08T05:59:17;16.47;71.46
65584;DHT22;70321;43.592;1.456;2023-08-08T06:01:44;16.49;71.07
65584;DHT22;70321;43.592;1.456;2023-08-08T06:04:11;16.44;71.96
65584;DHT22;70321;43.592;1.456;2023-08-08T06:06:38;16.52;71.62
65584;DHT22;70321;43.592;1.456;2023-08-08T06:09:04;16.54;71.89
65584;DHT22;70321;43.592;1.456;2023-08-08T06:11:31;16.56;71.85
65584;DHT22;70321;43.592;1.456;2023-08-08T06:13:58;16.63;71.22
65584;DHT22;70321;43.592;1.456;2023-08-08T06:16:25;16.60;71.40
65584;DHT22;70321;43.592;1.456;2023-08-08T06:18:52;16.56;71.37
65584;DHT22;70321;43.592;1.456;2023-08-08T06:21:19;16.56;71.64
65584;DHT22;70321;43.592;1.456;2023-08-08T06:23:46;16.56;71.32
65584;DHT22;70321;43.592;1.456;2023-08-08T06:26:14;16.63;71.73
65584;DHT22;70321;43.592;1.456;2023-08-08T06:28:41;16.68;71.67
65584;DHT22;70321;43.592;1.456;2023-08-08T06:31:07;16.71;71.72
65584;DHT22;70321;43.592;1.456;2023-08-08T06:33:34;16.74;71.61
65584;DHT22;70321;43.592;1.456;2023-08-08T06:36:01;16.78;71.62
65584;DHT22;70321;43.592;1.456;2023-08-08T06:38:29;16.87;70.61
65584;DHT22;70321;43.592;1.456;2023-08-08T06:41:01;16.80;71.18
65584;DHT22;70321;43.592;1.456;2023-08-08T06:43:30;16.90;70.33
65584;DHT22;70321;43.592;1.456;2023-08-08T06:45:56;16.88;71.08
65584;DHT22;70321;43.592;1.456;2023-08-08T06:48:23;16.91;71.49
65584;DHT22;70321;43.592;1.456;2023-08-08T06:50:50;16.95;71.21
65584;DHT22;70321;43.592;1.456;2023-08-08T06:53:17;16.98;71.50
65584;DHT22;70321;43.592;1.456;2023-08-08T06:55:44;17.04;71.41
65584;DHT22;70321;43.592;1.456;2023-08-08T06:58:11;17.12;71.23
65584;DHT22;70321;43.592;1.456;2023-08-08T07:00:37;17.21;71.02
65584;DHT22;70321;43.592;1.456;2023-08-08T07:03:04;17.25;71.32
65584;DHT22;70321;43.592;1.456;2023-08-08T07:05:31;17.34;71.14
65584;DHT22;70321;43.592;1.456;2023-08-08T07:07:58;17.41;70.81
65584;DHT22;70321;43.592;1.456;2023-08-08T07:10:25;17.43;70.69
65584;DHT22;70321;43.592;1.456;2023-08-08T07:12:53;17.49;70.56
65584;DHT22;70321;43.592;1.456;2023-08-08T07:15:20;17.58;70.38
65584;DHT22;70321;43.592;1.456;2023-08-08T07:17:46;17.61;70.08
65584;DHT22;70321;43.592;1.456;2023-08-08T07:20:13;17.66;69.94
65584;DHT22;70321;43.592;1.456;2023-08-08T07:22:40;17.73;69.70
65584;DHT22;70321;43.592;1.456;2023-08-08T07:25:07;17.82;69.63
65584;DHT22;70321;43.592;1.456;2023-08-08T07:27:34;17.85;69.59
65584;DHT22;70321;43.592;1.456;2023-08-08T07:30:01;17.93;69.34
65584;DHT22;70321;43.592;1.456;2023-08-08T07:32:29;17.97;68.38
65584;DHT22;70321;43.592;1.456;2023-08-08T07:34:58;18.05;68.83
65584;DHT22;70321;43.592;1.456;2023-08-08T07:37:27;18.10;68.94
65584;DHT22;70321;43.592;1.456;2023-08-08T07:39:54;18.19;68.32
65584;DHT22;70321;43.592;1.456;2023-08-08T07:42:21;18.20;69.17
65584;DHT22;70321;43.592;1.456;2023-08-08T07:44:48;18.25;68.36
65584;DHT22;70321;43.592;1.456;2023-08-08T07:47:14;18.27;68.12
65584;DHT22;70321;43.592;1.456;2023-08-08T07:49:41;18.32;67.84
65584;DHT22;70321;43.592;1.456;2023-08-08T07:52:08;18.36;67.90
65584;DHT22;70321;43.592;1.456;2023-08-08T07:54:34;18.43;67.42
65584;DHT22;70321;43.592;1.456;2023-08-08T07:57:01;18.50;67.73
65584;DHT22;70321;43.592;1.456;2023-08-08T07:59:28;18.60;67.32
65584;DHT22;70321;43.592;1.456;2023-08-08T08:01:54;18.65;67.16
65584;DHT22;70321;43.592;1.456;2023-08-08T08:04:21;18.71;66.96
65584;DHT22;70321;43.592;1.456;2023-08-08T08:06:48;18.77;67.00
65584;DHT22;70321;43.592;1.456;2023-08-08T08:09:14;18.87;67.44
65584;DHT22;70321;43.592;1.456;2023-08-08T08:11:41;18.98;67.24
65584;DHT22;70321;43.592;1.456;2023-08-08T08:14:07;19.02;67.35
65584;DHT22;70321;43.592;1.456;2023-08-08T08:16:34;19.11;67.11
65584;DHT22;70321;43.592;1.456;2023-08-08T08:19:01;19.16;66.22
65584;DHT22;70321;43.592;1.456;2023-08-08T08:21:28;19.22;65.44
65584;DHT22;70321;43.592;1.456;2023-08-08T08:23:56;19.25;65.51
65584;DHT22;70321;43.592;1.456;2023-08-08T08:26:22;19.31;65.04
65584;DHT22;70321;43.592;1.456;2023-08-08T08:28:49;19.39;64.70
65584;DHT22;70321;43.592;1.456;2023-08-08T08:31:16;19.46;64.67
65584;DHT22;70321;43.592;1.456;2023-08-08T08:33:42;19.55;65.11
65584;DHT22;70321;43.592;1.456;2023-08-08T08:36:09;19.65;64.37
65584;DHT22;70321;43.592;1.456;2023-08-08T08:38:38;19.72;64.83
65584;DHT22;70321;43.592;1.456;2023-08-08T08:41:05;19.87;64.72
65584;DHT22;70321;43.592;1.456;2023-08-08T08:43:32;19.97;64.56
65584;DHT22;70321;43.592;1.456;2023-08-08T08:46:00;20.07;64.67
65584;DHT22;70321;43.592;1.456;2023-08-08T08:48:28;20.19;64.22
65584;DHT22;70321;43.592;1.456;2023-08-08T08:50:54;20.33;63.60
65584;DHT22;70321;43.592;1.456;2023-08-08T08:53:22;20.44;62.95
65584;DHT22;70321;43.592;1.456;2023-08-08T08:55:50;20.54;62.48
65584;DHT22;70321;43.592;1.456;2023-08-08T08:58:17;20.63;62.29
65584;DHT22;70321;43.592;1.456;2023-08-08T09:00:44;20.71;58.99
65584;DHT22;70321;43.592;1.456;2023-08-08T09:03:12;20.77;60.48
65584;DHT22;70321;43.592;1.456;2023-08-08T09:05:41;20.87;59.64
65584;DHT22;70321;43.592;1.456;2023-08-08T09:08:08;20.96;60.61
65584;DHT22;70321;43.592;1.456;2023-08-08T09:10:38;21.09;59.68
65584;DHT22;70321;43.592;1.456;2023-08-08T09:13:05;21.22;58.16
65584;DHT22;70321;43.592;1.456;2023-08-08T09:15:32;21.35;59.18
65584;DHT22;70321;43.592;1.456;2023-08-08T09:18:00;21.42;56.81
65584;DHT22;70321;43.592;1.456;2023-08-08T09:20:27;21.52;58.12
65584;DHT22;70321;43.592;1.456;2023-08-08T09:22:55;21.65;58.18
65584;DHT22;70321;43.592;1.456;2023-08-08T09:25:22;21.69;57.90
65584;DHT22;70321;43.592;1.456;2023-08-08T09:27:53;21.80;58.14
65584;DHT22;70321;43.592;1.456;2023-08-08T09:30:20;21.92;57.70
65584;DHT22;70321;43.592;1.456;2023-08-08T09:32:47;22.04;55.94
65584;DHT22;70321;43.592;1.456;2023-08-08T09:35:14;22.12;57.22
65584;DHT22;70321;43.592;1.456;2023-08-08T09:37:41;22.17;57.15
65584;DHT22;70321;43.592;1.456;2023-08-08T09:40:08;22.29;56.16
65584;DHT22;70321;43.592;1.456;2023-08-08T09:42:40;22.32;55.96
65584;DHT22;70321;43.592;1.456;2023-08-08T09:45:08;22.37;55.52
65584;DHT22;70321;43.592;1.456;2023-08-08T09:47:37;22.45;55.70
65584;DHT22;70321;43.592;1.456;2023-08-08T09:50:04;22.48;53.96
65584;DHT22;70321;43.592;1.456;2023-08-08T09:52:33;22.54;50.09
65584;DHT22;70321;43.592;1.456;2023-08-08T09:55:01;22.58;48.77
65584;DHT22;70321;43.592;1.456;2023-08-08T09:57:29;22.65;50.70
65584;DHT22;70321;43.592;1.456;2023-08-08T09:59:57;22.68;49.92
65584;DHT22;70321;43.592;1.456;2023-08-08T10:02:24;22.77;51.24
65584;DHT22;70321;43.592;1.456;2023-08-08T10:04:52;22.87;52.06
65584;DHT22;70321;43.592;1.456;2023-08-08T10:07:19;22.98;51.66
65584;DHT22;70321;43.592;1.456;2023-08-08T10:09:45;23.09;52.22
65584;DHT22;70321;43.592;1.456;2023-08-08T10:12:12;23.12;50.81
65584;DHT22;70321;43.592;1.456;2023-08-08T10:14:42;23.15;52.64
65584;DHT22;70321;43.592;1.456;2023-08-08T10:17:14;23.22;48.55
65584;DHT22;70321;43.592;1.456;2023-08-08T10:19:51;23.32;49.62
65584;DHT22;70321;43.592;1.456;2023-08-08T10:22:21;23.37;48.97
65584;DHT22;70321;43.592;1.456;2023-08-08T10:24:52;23.46;49.16
65584;DHT22;70321;43.592;1.456;2023-08-08T10:27:36;23.60;49.24
65584;DHT22;70321;43.592;1.456;2023-08-08T10:30:07;23.77;47.67
65584;DHT22;70321;43.592;1.456;2023-08-08T10:32:47;23.87;47.81
65584;DHT22;70321;43.592;1.456;2023-08-08T10:35:17;23.92;44.02
65584;DHT22;70321;43.592;1.456;2023-08-08T10:37:57;23.94;44.45
65584;DHT22;70321;43.592;1.456;2023-08-08T10:40:33;23.97;45.13
65584;DHT22;70321;43.592;1.456;2023-08-08T10:43:10;24.02;45.15
65584;DHT22;70321;43.592;1.456;2023-08-08T10:45:41;24.00;45.10
65584;DHT22;70321;43.592;1.456;2023-08-08T10:48:09;24.04;45.70
65584;DHT22;70321;43.592;1.456;2023-08-08T10:50:41;24.04;43.60
65584;DHT22;70321;43.592;1.456;2023-08-08T10:53:09;24.14;41.53
65584;DHT22;70321;43.592;1.456;2023-08-08T10:55:38;24.17;42.37
65584;DHT22;70321;43.592;1.456;2023-08-08T10:58:12;24.21;44.36
65584;DHT22;70321;43.592;1.456;2023-08-08T11:00:39;24.34;45.32
65584;DHT22;70321;43.592;1.456;2023-08-08T11:03:07;24.43;45.29
65584;DHT22;70321;43.592;1.456;2023-08-08T11:05:37;24.47;43.50
65584;DHT22;70321;43.592;1.456;2023-08-08T11:08:06;24.47;43.66
65584;DHT22;70321;43.592;1.456;2023-08-08T11:10:38;24.63;46.53
65584;DHT22;70321;43.592;1.456;2023-08-08T11:13:06;24.65;41.10
65584;DHT22;70321;43.592;1.456;2023-08-08T11:15:34;24.71;43.71
65584;DHT22;70321;43.592;1.456;2023-08-08T11:18:02;24.69;39.93
65584;DHT22;70321;43.592;1.456;2023-08-08T11:20:31;24.75;41.39
65584;DHT22;70321;43.592;1.456;2023-08-08T11:22:59;24.81;41.13
65584;DHT22;70321;43.592;1.456;2023-08-08T11:25:28;24.85;40.89
65584;DHT22;70321;43.592;1.456;2023-08-08T11:27:56;24.91;41.50
65584;DHT22;70321;43.592;1.456;2023-08-08T11:30:24;24.96;42.53
65584;DHT22;70321;43.592;1.456;2023-08-08T11:32:54;25.04;41.18
65584;DHT22;70321;43.592;1.456;2023-08-08T11:35:24;25.11;43.21
65584;DHT22;70321;43.592;1.456;2023-08-08T11:37:52;25.15;42.76
65584;DHT22;70321;43.592;1.456;2023-08-08T11:40:20;25.21;43.82
65584;DHT22;70321;43.592;1.456;2023-08-08T11:42:48;25.29;42.32
65584;DHT22;70321;43.592;1.456;2023-08-08T11:45:17;25.39;42.69
65584;DHT22;70321;43.592;1.456;2023-08-08T11:47:48;25.50;42.99
65584;DHT22;70321;43.592;1.456;2023-08-08T11:50:16;25.59;40.80
65584;DHT22;70321;43.592;1.456;2023-08-08T11:52:45;25.66;42.15
65584;DHT22;70321;43.592;1.456;2023-08-08T11:55:12;25.72;43.37
65584;DHT22;70321;43.592;1.456;2023-08-08T11:57:40;25.76;42.41
65584;DHT22;70321;43.592;1.456;2023-08-08T12:00:10;25.83;43.99
65584;DHT22;70321;43.592;1.456;2023-08-08T12:02:42;25.94;44.04
65584;DHT22;70321;43.592;1.456;2023-08-08T12:05:11;26.08;43.06
65584;DHT22;70321;43.592;1.456;2023-08-08T12:07:39;26.18;41.78
65584;DHT22;70321;43.592;1.456;2023-08-08T12:10:19;26.28;42.61
65584;DHT22;70321;43.592;1.456;2023-08-08T12:12:51;26.31;41.16
65584;DHT22;70321;43.592;1.456;2023-08-08T12:15:19;26.28;37.20
65584;DHT22;70321;43.592;1.456;2023-08-08T12:17:46;26.27;38.17
65584;DHT22;70321;43.592;1.456;2023-08-08T12:20:14;26.31;38.80
65584;DHT22;70321;43.592;1.456;2023-08-08T12:22:41;26.40;39.37
65584;DHT22;70321;43.592;1.456;2023-08-08T12:25:08;26.40;38.94
65584;DHT22;70321;43.592;1.456;2023-08-08T12:27:35;26.45;40.31
65584;DHT22;70321;43.592;1.456;2023-08-08T12:30:02;26.51;36.36
65584;DHT22;70321;43.592;1.456;2023-08-08T12:32:28;26.55;38.22
65584;DHT22;70321;43.592;1.456;2023-08-08T12:34:58;26.57;38.34
65584;DHT22;70321;43.592;1.456;2023-08-08T12:37:24;26.64;38.20
65584;DHT22;70321;43.592;1.456;2023-08-08T12:39:51;26.68;36.84
65584;DHT22;70321;43.592;1.456;2023-08-08T12:42:18;26.81;39.01
65584;DHT22;70321;43.592;1.456;2023-08-08T12:44:45;26.94;39.45
65584;DHT22;70321;43.592;1.456;2023-08-08T12:47:13;26.99;37.81
65584;DHT22;70321;43.592;1.456;2023-08-08T12:49:41;26.95;36.75
65584;DHT22;70321;43.592;1.456;2023-08-08T12:52:08;27.02;36.45
65584;DHT22;70321;43.592;1.456;2023-08-08T12:54:35;27.04;37.43
65584;DHT22;70321;43.592;1.456;2023-08-08T12:57:03;27.08;37.21
65584;DHT22;70321;43.592;1.456;2023-08-08T12:59:30;27.09;39.21
65584;DHT22;70321;43.592;1.456;2023-08-08T13:01:57;27.15;34.44
65584;DHT22;70321;43.592;1.456;2023-08-08T13:04:25;27.25;35.29
65584;DHT22;70321;43.592;1.456;2023-08-08T13:06:51;27.31;35.18
65584;DHT22;70321;43.592;1.456;2023-08-08T13:09:18;27.36;35.20
65584;DHT22;70321;43.592;1.456;2023-08-08T13:11:45;27.34;34.82
65584;DHT22;70321;43.592;1.456;2023-08-08T13:14:12;27.35;37.56
65584;DHT22;70321;43.592;1.456;2023-08-08T13:16:38;27.28;33.80
65584;DHT22;70321;43.592;1.456;2023-08-08T13:19:05;27.24;33.88
65584;DHT22;70321;43.592;1.456;2023-08-08T13:21:32;27.25;33.84
65584;DHT22;70321;43.592;1.456;2023-08-08T13:23:59;27.26;37.15
65584;DHT22;70321;43.592;1.456;2023-08-08T13:26:26;27.29;36.70
65584;DHT22;70321;43.592;1.456;2023-08-08T13:28:53;27.36;37.38
65584;DHT22;70321;43.592;1.456;2023-08-08T13:31:19;27.42;37.51
65584;DHT22;70321;43.592;1.456;2023-08-08T13:33:46;27.52;37.73
65584;DHT22;70321;43.592;1.456;2023-08-08T13:36:13;27.60;38.77
65584;DHT22;70321;43.592;1.456;2023-08-08T13:38:39;27.76;38.37
65584;DHT22;70321;43.592;1.456;2023-08-08T13:41:06;27.90;37.29
65584;DHT22;70321;43.592;1.456;2023-08-08T13:43:33;28.06;39.01
65584;DHT22;70321;43.592;1.456;2023-08-08T13:46:00;28.11;36.92
65584;DHT22;70321;43.592;1.456;2023-08-08T13:48:27;28.20;37.15
65584;DHT22;70321;43.592;1.456;2023-08-08T13:50:53;28.25;35.62
65584;DHT22;70321;43.592;1.456;2023-08-08T13:53:20;28.30;35.96
65584;DHT22;70321;43.592;1.456;2023-08-08T13:55:47;28.28;33.51
65584;DHT22;70321;43.592;1.456;2023-08-08T13:58:13;28.33;33.77
65584;DHT22;70321;43.592;1.456;2023-08-08T14:00:40;28.39;35.38
65584;DHT22;70321;43.592;1.456;2023-08-08T14:03:07;28.40;36.02
65584;DHT22;70321;43.592;1.456;2023-08-08T14:05:34;28.44;32.43
65584;DHT22;70321;43.592;1.456;2023-08-08T14:08:01;28.45;32.93
65584;DHT22;70321;43.592;1.456;2023-08-08T14:10:27;28.43;29.75
65584;DHT22;70321;43.592;1.456;2023-08-08T14:12:54;28.43;32.94
65584;DHT22;70321;43.592;1.456;2023-08-08T14:15:21;28.41;33.39
65584;DHT22;70321;43.592;1.456;2023-08-08T14:17:48;28.48;32.46
65584;DHT22;70321;43.592;1.456;2023-08-08T14:20:14;28.48;28.90
65584;DHT22;70321;43.592;1.456;2023-08-08T14:22:44;28.45;27.52
65584;DHT22;70321;43.592;1.456;2023-08-08T14:25:11;28.48;29.28
65584;DHT22;70321;43.592;1.456;2023-08-08T14:27:39;28.45;26.01
65584;DHT22;70321;43.592;1.456;2023-08-08T14:30:06;28.45;28.93
65584;DHT22;70321;43.592;1.456;2023-08-08T14:32:33;28.41;26.84
65584;DHT22;70321;43.592;1.456;2023-08-08T14:35:00;28.39;29.38
65584;DHT22;70321;43.592;1.456;2023-08-08T14:37:29;28.31;31.63
65584;DHT22;70321;43.592;1.456;2023-08-08T14:39:55;28.24;32.68
65584;DHT22;70321;43.592;1.456;2023-08-08T14:42:22;28.18;27.22
65584;DHT22;70321;43.592;1.456;2023-08-08T14:44:49;28.21;28.31
65584;DHT22;70321;43.592;1.456;2023-08-08T14:47:15;28.30;26.65
65584;DHT22;70321;43.592;1.456;2023-08-08T14:49:42;28.31;30.77
65584;DHT22;70321;43.592;1.456;2023-08-08T14:52:09;28.37;29.00
65584;DHT22;70321;43.592;1.456;2023-08-08T14:54:35;28.44;29.60
65584;DHT22;70321;43.592;1.456;2023-08-08T14:57:03;28.52;29.95
65584;DHT22;70321;43.592;1.456;2023-08-08T14:59:29;28.64;28.78
65584;DHT22;70321;43.592;1.456;2023-08-08T15:01:56;28.74;30.09
65584;DHT22;70321;43.592;1.456;2023-08-08T15:04:23;28.78;31.53
65584;DHT22;70321;43.592;1.456;2023-08-08T15:06:50;28.78;31.35
65584;DHT22;70321;43.592;1.456;2023-08-08T15:09:16;28.76;31.52
65584;DHT22;70321;43.592;1.456;2023-08-08T15:11:43;28.78;28.56
65584;DHT22;70321;43.592;1.456;2023-08-08T15:14:09;28.74;25.07
65584;DHT22;70321;43.592;1.456;2023-08-08T15:16:36;28.76;25.97
65584;DHT22;70321;43.592;1.456;2023-08-08T15:19:03;28.79;26.61
65584;DHT22;70321;43.592;1.456;2023-08-08T15:21:30;28.82;26.67
65584;DHT22;70321;43.592;1.456;2023-08-08T15:23:57;28.87;26.93
65584;DHT22;70321;43.592;1.456;2023-08-08T15:26:23;28.88;29.21
65584;DHT22;70321;43.592;1.456;2023-08-08T15:28:50;28.91;25.32
65584;DHT22;70321;43.592;1.456;2023-08-08T15:31:17;28.87;26.14